sensor_id;sensor_type;location;lat;lon;timestamp;temperature;humidity
1686;DHT22;840;47.980;7.830;2024-03-08T00:00:18;4.80;99.90
1686;DHT22;840;47.980;7.830;2024-03-08T00:02:45;4.70;99.90
1686;DHT22;840;47.980;7.830;2024-03-08T00:05:13;4.70;99.90
1686;DHT22;840;47.980;7.830;2024-03-08T00:07:42;4.60;99.90
1686;DHT22;840;47.980;7.830;2024-03-08T00:10:10;4.60;99.90
1686;DHT22;840;47.980;7.830;2024-03-08T00:12:37;4.50;99.90
1686;DHT22;840;47.980;7.830;2024-03-08T00:15:05;4.50;99.90
1686;DHT22;840;47.980;7.830;2024-03-08T00:17:31;4.50;99.90
1686;DHT22;840;47.980;7.830;2024-03-08T00:19:58;4.50;99.90
1686;DHT22;840;47.980;7.830;2024-03-08T00:22:25;4.50;99.90
1686;DHT22;840;47.980;7.830;2024-03-08T00:24:53;4.50;99.90
1686;DHT22;840;47.980;7.830;2024-03-08T00:27:21;4.40;99.90
1686;DHT22;840;47.980;7.830;2024-03-08T00:29:47;4.40;99.90
1686;DHT22;840;47.980;7.830;2024-03-08T00:32:14;4.30;99.90
1686;DHT22;840;47.980;7.830;2024-03-08T00:34:42;4.30;99.90
1686;DHT22;840;47.980;7.830;2024-03-08T00:37:09;4.30;99.90
1686;DHT22;840;47.980;7.830;2024-03-08T00:39:36;4.30;99.90
1686;DHT22;840;47.980;7.830;2024-03-08T00:42:04;4.30;99.90
1686;DHT22;840;47.980;7.830;2024-03-08T00:44:31;4.30;99.90
1686;DHT22;840;47.980;7.830;2024-03-08T00:46:57;4.30;99.90
1686;DHT22;840;47.980;7.830;2024-03-08T00:49:24;4.30;99.90
1686;DHT22;840;47.980;7.830;2024-03-08T00:51:51;4.20;99.90
1686;DHT22;840;47.980;7.830;2024-03-08T00:54:18;4.20;99.90
1686;DHT22;840;47.980;7.830;2024-03-08T00:56:44;4.20;99.90
1686;DHT22;840;47.980;7.830;2024-03-08T00:59:13;4.20;99.90
1686;DHT22;840;47.980;7.830;2024-03-08T01:01:40;4.10;99.90
1686;DHT22;840;47.980;7.830;2024-03-08T01:04:06;4.10;99.90
1686;DHT22;840;47.980;7.830;2024-03-08T01:06:34;4.10;99.90
1686;DHT22;840;47.980;7.830;2024-03-08T01:09:00;4.10;99.90
1686;DHT22;840;47.980;7.830;2024-03-08T01:11:27;4.10;99.90
1686;DHT22;840;47.980;7.830;2024-03-08T01:13:54;4.10;99.90
1686;DHT22;840;47.980;7.830;2024-03-08T01:16:22;4.00;99.90
1686;DHT22;840;47.980;7.830;2024-03-08T01:18:49;4.00;99.90
1686;DHT22;840;47.980;7.830;2024-03-08T01:21:15;4.00;99.90
1686;DHT22;840;47.980;7.830;2024-03-08T01:23:42;4.00;99.90
1686;DHT22;840;47.980;7.830;2024-03-08T01:26:09;4.00;99.90
1686;DHT22;840;47.980;7.830;2024-03-08T01:28:36;4.00;99.90
1686;DHT22;840;47.980;7.830;2024-03-08T01:31:03;4.00;99.90
1686;DHT22;840;47.980;7.830;2024-03-08T01:33:32;4.00;99.90
1686;DHT22;840;47.980;7.830;2024-03-08T01:35:59;4.00;99.90
1686;DHT22;840;47.980;7.830;2024-03-08T01:38:26;3.90;99.90
1686;DHT22;840;47.980;7.830;2024-03-08T01:40:52;3.90;99.90
1686;DHT22;840;47.980;7.830;2024-03-08T01:43:20;3.90;99.90
1686;DHT22;840;47.980;7.830;2024-03-08T01:45:47;3.90;99.90
1686;DHT22;840;47.980;7.830;2024-03-08T01:48:15;3.80;99.90
1686;DHT22;840;47.980;7.830;2024-03-08T01:50:44;3.80;99.90
1686;DHT22;840;47.980;7.830;2024-03-08T01:53:11;3.80;99.90
1686;DHT22;840;47.980;7.830;2024-03-08T01:55:40;3.80;99.90
1686;DHT22;840;47.980;7.830;2024-03-08T01:58:09;3.80;99.90
1686;DHT22;840;47.980;7.830;2024-03-08T02:00:37;3.70;99.90
1686;DHT22;840;47.980;7.830;2024-03-08T02:03:05;3.70;99.90
1686;DHT22;840;47.980;7.830;2024-03-08T02:05:32;3.70;99.90
1686;DHT22;840;47.980;7.830;2024-03-08T02:08:00;3.70;99.90
1686;DHT22;840;47.980;7.830;2024-03-08T02:10:28;3.70;99.90
1686;DHT22;840;47.980;7.830;2024-03-08T02:12:55;3.60;99.90
1686;DHT22;840;47.980;7.830;2024-03-08T02:15:22;3.60;99.90
1686;DHT22;840;47.980;7.830;2024-03-08T02:17:48;3.60;99.90
1686;DHT22;840;47.980;7.830;2024-03-08T02:20:15;3.50;99.90
1686;DHT22;840;47.980;7.830;2024-03-08T02:22:46;3.50;99.90
1686;DHT22;840;47.980;7.830;2024-03-08T02:25:13;3.50;99.90
1686;DHT22;840;47.980;7.830;2024-03-08T02:27:39;3.50;99.90
1686;DHT22;840;47.980;7.830;2024-03-08T02:30:07;3.50;99.90
1686;DHT22;840;47.980;7.830;2024-03-08T02:32:35;3.50;99.90
1686;DHT22;840;47.980;7.830;2024-03-08T02:35:02;3.50;99.90
1686;DHT22;840;47.980;7.830;2024-03-08T02:37:28;3.50;99.90
1686;DHT22;840;47.980;7.830;2024-03-08T02:39:57;3.40;99.90
1686;DHT22;840;47.980;7.830;2024-03-08T02:42:23;3.40;99.90
1686;DHT22;840;47.980;7.830;2024-03-08T02:44:50;3.40;99.90
1686;DHT22;840;47.980;7.830;2024-03-08T02:47:17;3.40;99.90
1686;DHT22;840;47.980;7.830;2024-03-08T02:49:43;3.40;99.90
1686;DHT22;840;47.980;7.830;2024-03-08T02:52:11;3.40;99.90
1686;DHT22;840;47.980;7.830;2024-03-08T02:54:37;3.40;99.90
1686;DHT22;840;47.980;7.830;2024-03-08T02:57:05;3.40;99.90
1686;DHT22;840;47.980;7.830;2024-03-08T02:59:33;3.40;99.90
1686;DHT22;840;47.980;7.830;2024-03-08T03:02:00;3.30;99.90
1686;DHT22;840;47.980;7.830;2024-03-08T03:04:27;3.30;99.90
1686;DHT22;840;47.980;7.830;2024-03-08T03:06:54;3.30;99.90
1686;DHT22;840;47.980;7.830;2024-03-08T03:09:20;3.30;99.90
1686;DHT22;840;47.980;7.830;2024-03-08T03:11:53;3.30;99.90
1686;DHT22;840;47.980;7.830;2024-03-08T03:14:21;3.30;99.90
1686;DHT22;840;47.980;7.830;2024-03-08T03:16:47;3.30;99.90
1686;DHT22;840;47.980;7.830;2024-03-08T03:19:18;3.30;99.90
1686;DHT22;840;47.980;7.830;2024-03-08T03:21:45;3.30;99.90
1686;DHT22;840;47.980;7.830;2024-03-08T03:24:12;3.30;99.90
1686;DHT22;840;47.980;7.830;2024-03-08T03:26:41;3.30;99.90
1686;DHT22;840;47.980;7.830;2024-03-08T03:29:09;3.30;99.90
1686;DHT22;840;47.980;7.830;2024-03-08T03:31:37;3.30;99.90
1686;DHT22;840;47.980;7.830;2024-03-08T03:34:05;3.20;99.90
1686;DHT22;840;47.980;7.830;2024-03-08T03:36:34;3.20;99.90
1686;DHT22;840;47.980;7.830;2024-03-08T03:39:03;3.20;99.90
1686;DHT22;840;47.980;7.830;2024-03-08T03:41:36;3.20;99.90
1686;DHT22;840;47.980;7.830;2024-03-08T03:44:04;3.20;99.90
1686;DHT22;840;47.980;7.830;2024-03-08T03:46:30;3.20;99.90
1686;DHT22;840;47.980;7.830;2024-03-08T03:48:58;3.20;99.90
1686;DHT22;840;47.980;7.830;2024-03-08T03:51:25;3.20;99.90
1686;DHT22;840;47.980;7.830;2024-03-08T03:53:52;3.10;99.90
1686;DHT22;840;47.980;7.830;2024-03-08T03:56:19;3.10;99.90
1686;DHT22;840;47.980;7.830;2024-03-08T03:58:51;3.10;99.90
1686;DHT22;840;47.980;7.830;2024-03-08T04:01:17;3.10;99.90
1686;DHT22;840;47.980;7.830;2024-03-08T04:03:44;3.10;99.90
1686;DHT22;840;47.980;7.830;2024-03-08T04:06:12;3.10;99.90
1686;DHT22;840;47.980;7.830;2024-03-08T04:08:39;3.00;99.90
1686;DHT22;840;47.980;7.830;2024-03-08T04:11:06;3.00;99.90
1686;DHT22;840;47.980;7.830;2024-03-08T04:13:33;3.00;99.90
1686;DHT22;840;47.980;7.830;2024-03-08T04:16:01;3.00;99.90
1686;DHT22;840;47.980;7.830;2024-03-08T04:18:28;3.00;99.90
1686;DHT22;840;47.980;7.830;2024-03-08T04:20:54;3.00;99.90
1686;DHT22;840;47.980;7.830;2024-03-08T04:23:22;3.00;99.90
1686;DHT22;840;47.980;7.830;2024-03-08T04:25:48;3.00;99.90
1686;DHT22;840;47.980;7.830;2024-03-08T04:28:15;3.00;99.90
1686;DHT22;840;47.980;7.830;2024-03-08T04:30:42;3.00;99.90
1686;DHT22;840;47.980;7.830;2024-03-08T04:33:09;3.00;99.90
1686;DHT22;840;47.980;7.830;2024-03-08T04:35:35;3.00;99.90
1686;DHT22;840;47.980;7.830;2024-03-08T04:38:02;3.00;99.90
1686;DHT22;840;47.980;7.830;2024-03-08T04:40:32;3.00;99.90
1686;DHT22;840;47.980;7.830;2024-03-08T04:42:59;2.90;99.90
1686;DHT22;840;47.980;7.830;2024-03-08T04:45:26;2.90;99.90
1686;DHT22;840;47.980;7.830;2024-03-08T04:47:53;2.90;99.90
1686;DHT22;840;47.980;7.830;2024-03-08T04:50:20;2.90;99.90
1686;DHT22;840;47.980;7.830;2024-03-08T04:52:46;2.90;99.90
1686;DHT22;840;47.980;7.830;2024-03-08T04:55:14;2.90;99.90
1686;DHT22;840;47.980;7.830;2024-03-08T04:57:42;2.90;99.90
1686;DHT22;840;47.980;7.830;2024-03-08T05:00:12;2.90;99.90
1686;DHT22;840;47.980;7.830;2024-03-08T05:02:40;2.90;99.90
1686;DHT22;840;47.980;7.830;2024-03-08T05:05:07;2.90;99.90
1686;DHT22;840;47.980;7.830;2024-03-08T05:07:36;2.90;99.90
1686;DHT22;840;47.980;7.830;2024-03-08T05:10:04;2.90;99.90
1686;DHT22;840;47.980;7.830;2024-03-08T05:12:32;2.90;99.90
1686;DHT22;840;47.980;7.830;2024-03-08T05:15:00;2.90;99.90
1686;DHT22;840;47.980;7.830;2024-03-08T05:17:26;2.90;99.90
1686;DHT22;840;47.980;7.830;2024-03-08T05:19:53;2.90;99.90
1686;DHT22;840;47.980;7.830;2024-03-08T05:22:20;2.90;99.90
1686;DHT22;840;47.980;7.830;2024-03-08T05:24:46;2.90;99.90
1686;DHT22;840;47.980;7.830;2024-03-08T05:27:13;2.90;99.90
1686;DHT22;840;47.980;7.830;2024-03-08T05:29:40;2.90;99.90
1686;DHT22;840;47.980;7.830;2024-03-08T05:32:08;2.90;99.90
1686;DHT22;840;47.980;7.830;2024-03-08T05:34:35;2.90;99.90
1686;DHT22;840;47.980;7.830;2024-03-08T05:37:02;2.90;99.90
1686;DHT22;840;47.980;7.830;2024-03-08T05:39:29;2.90;99.90
1686;DHT22;840;47.980;7.830;2024-03-08T05:41:55;2.80;99.90
1686;DHT22;840;47.980;7.830;2024-03-08T05:44:22;2.80;99.90
1686;DHT22;840;47.980;7.830;2024-03-08T05:46:49;2.80;99.90
1686;DHT22;840;47.980;7.830;2024-03-08T05:49:17;2.80;99.90
1686;DHT22;840;47.980;7.830;2024-03-08T05:51:44;2.70;99.90
1686;DHT22;840;47.980;7.830;2024-03-08T05:54:13;2.70;99.90
1686;DHT22;840;47.980;7.830;2024-03-08T05:56:40;2.70;99.90
1686;DHT22;840;47.980;7.830;2024-03-08T05:59:07;2.70;99.90
1686;DHT22;840;47.980;7.830;2024-03-08T06:01:34;2.70;99.90
1686;DHT22;840;47.980;7.830;2024-03-08T06:04:02;2.70;99.90
1686;DHT22;840;47.980;7.830;2024-03-08T06:06:30;2.60;99.90
1686;DHT22;840;47.980;7.830;2024-03-08T06:08:57;2.60;99.90
1686;DHT22;840;47.980;7.830;2024-03-08T06:11:24;2.60;99.90
1686;DHT22;840;47.980;7.830;2024-03-08T06:13:52;2.60;99.90
1686;DHT22;840;47.980;7.830;2024-03-08T06:16:25;2.60;99.90
1686;DHT22;840;47.980;7.830;2024-03-08T06:18:55;2.60;99.90
1686;DHT22;840;47.980;7.830;2024-03-08T06:21:22;2.60;99.90
1686;DHT22;840;47.980;7.830;2024-03-08T06:23:54;2.60;99.90
1686;DHT22;840;47.980;7.830;2024-03-08T06:26:24;2.60;99.90
1686;DHT22;840;47.980;7.830;2024-03-08T06:28:54;2.60;99.90
1686;DHT22;840;47.980;7.830;2024-03-08T06:31:20;2.70;99.90
1686;DHT22;840;47.980;7.830;2024-03-08T06:33:47;2.70;99.90
1686;DHT22;840;47.980;7.830;2024-03-08T06:36:16;2.70;99.90
1686;DHT22;840;47.980;7.830;2024-03-08T06:38:44;2.80;99.90
1686;DHT22;840;47.980;7.830;2024-03-08T06:41:12;2.80;99.90
1686;DHT22;840;47.980;7.830;2024-03-08T06:43:41;2.80;99.90
1686;DHT22;840;47.980;7.830;2024-03-08T06:46:11;2.80;99.90
1686;DHT22;840;47.980;7.830;2024-03-08T06:48:38;2.80;99.90
1686;DHT22;840;47.980;7.830;2024-03-08T06:51:05;2.80;99.90
1686;DHT22;840;47.980;7.830;2024-03-08T06:53:32;2.80;99.90
1686;DHT22;840;47.980;7.830;2024-03-08T06:56:00;2.80;99.90
1686;DHT22;840;47.980;7.830;2024-03-08T06:58:28;2.80;99.90
1686;DHT22;840;47.980;7.830;2024-03-08T07:00:55;2.80;99.90
1686;DHT22;840;47.980;7.830;2024-03-08T07:03:24;2.90;99.90
1686;DHT22;840;47.980;7.830;2024-03-08T07:05:51;2.90;99.90
1686;DHT22;840;47.980;7.830;2024-03-08T07:08:18;2.90;99.90
1686;DHT22;840;47.980;7.830;2024-03-08T07:10:47;3.00;99.90
1686;DHT22;840;47.980;7.830;2024-03-08T07:13:14;3.00;99.90
1686;DHT22;840;47.980;7.830;2024-03-08T07:15:43;3.10;99.90
1686;DHT22;840;47.980;7.830;2024-03-08T07:18:11;3.20;99.90
1686;DHT22;840;47.980;7.830;2024-03-08T07:20:40;3.30;99.90
1686;DHT22;840;47.980;7.830;2024-03-08T07:23:06;3.40;99.90
1686;DHT22;840;47.980;7.830;2024-03-08T07:25:34;3.40;99.90
1686;DHT22;840;47.980;7.830;2024-03-08T07:28:00;3.50;99.90
1686;DHT22;840;47.980;7.830;2024-03-08T07:30:27;3.60;99.90
1686;DHT22;840;47.980;7.830;2024-03-08T07:33:13;3.70;99.90
1686;DHT22;840;47.980;7.830;2024-03-08T07:35:43;3.80;99.90
1686;DHT22;840;47.980;7.830;2024-03-08T07:38:10;3.80;99.90
1686;DHT22;840;47.980;7.830;2024-03-08T07:40:37;3.90;99.90
1686;DHT22;840;47.980;7.830;2024-03-08T07:43:05;4.00;99.90
1686;DHT22;840;47.980;7.830;2024-03-08T07:45:32;4.00;99.90
1686;DHT22;840;47.980;7.830;2024-03-08T07:47:59;4.10;99.90
1686;DHT22;840;47.980;7.830;2024-03-08T07:50:27;4.10;99.90
1686;DHT22;840;47.980;7.830;2024-03-08T07:52:54;4.20;99.90
1686;DHT22;840;47.980;7.830;2024-03-08T07:55:20;4.20;99.90
1686;DHT22;840;47.980;7.830;2024-03-08T07:57:50;4.30;99.90
1686;DHT22;840;47.980;7.830;2024-03-08T08:00:18;4.40;99.90
1686;DHT22;840;47.980;7.830;2024-03-08T08:02:48;4.40;99.90
1686;DHT22;840;47.980;7.830;2024-03-08T08:05:16;4.50;99.90
1686;DHT22;840;47.980;7.830;2024-03-08T08:07:45;4.50;99.90
1686;DHT22;840;47.980;7.830;2024-03-08T08:10:12;4.60;99.90
1686;DHT22;840;47.980;7.830;2024-03-08T08:12:44;4.60;99.90
1686;DHT22;840;47.980;7.830;2024-03-08T08:15:10;4.70;99.90
1686;DHT22;840;47.980;7.830;2024-03-08T08:17:38;4.80;99.90
1686;DHT22;840;47.980;7.830;2024-03-08T08:20:05;4.80;99.90
1686;DHT22;840;47.980;7.830;2024-03-08T08:22:32;4.90;99.90
1686;DHT22;840;47.980;7.830;2024-03-08T08:25:00;5.00;99.90
1686;DHT22;840;47.980;7.830;2024-03-08T08:27:28;5.00;99.90
1686;DHT22;840;47.980;7.830;2024-03-08T08:29:55;5.10;99.90
1686;DHT22;840;47.980;7.830;2024-03-08T08:32:22;5.10;99.90
1686;DHT22;840;47.980;7.830;2024-03-08T08:34:49;5.20;99.90
1686;DHT22;840;47.980;7.830;2024-03-08T08:37:15;5.20;99.90
1686;DHT22;840;47.980;7.830;2024-03-08T08:39:42;5.20;99.90
1686;DHT22;840;47.980;7.830;2024-03-08T08:42:10;5.20;99.90
1686;DHT22;840;47.980;7.830;2024-03-08T08:44:38;5.30;99.90
1686;DHT22;840;47.980;7.830;2024-03-08T08:47:07;5.30;99.90
1686;DHT22;840;47.980;7.830;2024-03-08T08:49:34;5.40;99.90
1686;DHT22;840;47.980;7.830;2024-03-08T08:52:00;5.50;99.90
1686;DHT22;840;47.980;7.830;2024-03-08T08:54:28;5.50;99.90
1686;DHT22;840;47.980;7.830;2024-03-08T08:56:55;5.50;99.90
1686;DHT22;840;47.980;7.830;2024-03-08T08:59:23;5.60;99.90
1686;DHT22;840;47.980;7.830;2024-03-08T09:01:50;5.60;99.90
1686;DHT22;840;47.980;7.830;2024-03-08T09:04:19;5.70;99.90
1686;DHT22;840;47.980;7.830;2024-03-08T09:06:47;5.70;99.90
1686;DHT22;840;47.980;7.830;2024-03-08T09:09:13;5.80;99.90
1686;DHT22;840;47.980;7.830;2024-03-08T09:11:42;5.80;99.90
1686;DHT22;840;47.980;7.830;2024-03-08T09:14:09;5.80;99.90
1686;DHT22;840;47.980;7.830;2024-03-08T09:16:38;5.90;99.90
1686;DHT22;840;47.980;7.830;2024-03-08T09:19:05;5.90;99.90
1686;DHT22;840;47.980;7.830;2024-03-08T09:21:32;6.00;99.90
1686;DHT22;840;47.980;7.830;2024-03-08T09:24:00;6.20;99.90
1686;DHT22;840;47.980;7.830;2024-03-08T09:26:27;6.30;99.90
1686;DHT22;840;47.980;7.830;2024-03-08T09:28:53;6.30;99.90
1686;DHT22;840;47.980;7.830;2024-03-08T09:31:21;6.40;99.90
1686;DHT22;840;47.980;7.830;2024-03-08T09:33:49;6.40;99.90
1686;DHT22;840;47.980;7.830;2024-03-08T09:36:16;6.50;99.90
1686;DHT22;840;47.980;7.830;2024-03-08T09:38:42;6.60;99.90
1686;DHT22;840;47.980;7.830;2024-03-08T09:41:09;6.60;99.90
1686;DHT22;840;47.980;7.830;2024-03-08T09:43:38;6.60;99.90
1686;DHT22;840;47.980;7.830;2024-03-08T09:46:06;6.70;99.90
1686;DHT22;840;47.980;7.830;2024-03-08T09:48:34;6.80;99.90
1686;DHT22;840;47.980;7.830;2024-03-08T09:51:03;6.80;99.90
1686;DHT22;840;47.980;7.830;2024-03-08T09:53:30;6.80;99.90
1686;DHT22;840;47.980;7.830;2024-03-08T09:55:57;6.80;99.90
1686;DHT22;840;47.980;7.830;2024-03-08T09:58:24;6.80;99.90
1686;DHT22;840;47.980;7.830;2024-03-08T10:01:14;6.80;99.90
1686;DHT22;840;47.980;7.830;2024-03-08T10:03:41;6.90;99.90
1686;DHT22;840;47.980;7.830;2024-03-08T10:06:09;6.90;99.90
1686;DHT22;840;47.980;7.830;2024-03-08T10:08:36;7.00;99.90
1686;DHT22;840;47.980;7.830;2024-03-08T10:11:03;7.10;99.90
1686;DHT22;840;47.980;7.830;2024-03-08T10:13:30;7.20;99.90
1686;DHT22;840;47.980;7.830;2024-03-08T10:15:57;7.20;99.90
1686;DHT22;840;47.980;7.830;2024-03-08T10:18:23;7.30;99.90
1686;DHT22;840;47.980;7.830;2024-03-08T10:21:03;7.30;99.90
1686;DHT22;840;47.980;7.830;2024-03-08T10:23:32;7.30;99.90
1686;DHT22;840;47.980;7.830;2024-03-08T10:26:10;7.30;99.90
1686;DHT22;840;47.980;7.830;2024-03-08T10:28:40;7.40;99.90
1686;DHT22;840;47.980;7.830;2024-03-08T10:31:07;7.50;99.90
1686;DHT22;840;47.980;7.830;2024-03-08T10:33:34;7.50;99.90
1686;DHT22;840;47.980;7.830;2024-03-08T10:36:01;7.50;99.90
1686;DHT22;840;47.980;7.830;2024-03-08T10:38:32;7.50;99.90
1686;DHT22;840;47.980;7.830;2024-03-08T10:41:00;7.50;99.90
1686;DHT22;840;47.980;7.830;2024-03-08T10:43:28;7.60;99.90
1686;DHT22;840;47.980;7.830;2024-03-08T10:46:10;7.60;99.90
1686;DHT22;840;47.980;7.830;2024-03-08T10:48:42;7.60;99.90
1686;DHT22;840;47.980;7.830;2024-03-08T10:51:11;7.60;99.90
1686;DHT22;840;47.980;7.830;2024-03-08T10:53:40;7.60;99.90
1686;DHT22;840;47.980;7.830;2024-03-08T10:56:07;7.70;99.90
1686;DHT22;840;47.980;7.830;2024-03-08T10:58:35;7.70;99.90
1686;DHT22;840;47.980;7.830;2024-03-08T11:01:03;7.80;99.90
1686;DHT22;840;47.980;7.830;2024-03-08T11:03:44;7.80;99.90
1686;DHT22;840;47.980;7.830;2024-03-08T11:06:15;7.80;99.90
1686;DHT22;840;47.980;7.830;2024-03-08T11:08:45;7.90;99.90
1686;DHT22;840;47.980;7.830;2024-03-08T11:11:26;8.00;99.90
1686;DHT22;840;47.980;7.830;2024-03-08T11:13:55;8.10;99.90
1686;DHT22;840;47.980;7.830;2024-03-08T11:16:39;8.10;99.90
1686;DHT22;840;47.980;7.830;2024-03-08T11:19:26;8.20;99.90
1686;DHT22;840;47.980;7.830;2024-03-08T11:21:58;8.20;99.90
1686;DHT22;840;47.980;7.830;2024-03-08T11:24:26;8.20;99.90
1686;DHT22;840;47.980;7.830;2024-03-08T11:26:57;8.30;99.90
1686;DHT22;840;47.980;7.830;2024-03-08T11:29:38;8.30;99.90
1686;DHT22;840;47.980;7.830;2024-03-08T11:32:10;8.30;99.90
1686;DHT22;840;47.980;7.830;2024-03-08T11:37:05;8.40;99.90
1686;DHT22;840;47.980;7.830;2024-03-08T11:39:36;8.50;99.90
1686;DHT22;840;47.980;7.830;2024-03-08T11:42:04;8.50;99.90
1686;DHT22;840;47.980;7.830;2024-03-08T11:44:31;8.50;99.90
1686;DHT22;840;47.980;7.830;2024-03-08T11:46:58;8.60;99.90
1686;DHT22;840;47.980;7.830;2024-03-08T11:49:24;8.70;99.90
1686;DHT22;840;47.980;7.830;2024-03-08T11:51:52;8.80;99.90
1686;DHT22;840;47.980;7.830;2024-03-08T11:54:19;8.90;99.90
1686;DHT22;840;47.980;7.830;2024-03-08T11:56:47;8.90;99.90
1686;DHT22;840;47.980;7.830;2024-03-08T11:59:14;9.00;99.90
1686;DHT22;840;47.980;7.830;2024-03-08T12:01:43;9.00;99.90
1686;DHT22;840;47.980;7.830;2024-03-08T12:04:12;9.10;99.90
1686;DHT22;840;47.980;7.830;2024-03-08T12:06:40;9.10;99.90
1686;DHT22;840;47.980;7.830;2024-03-08T12:09:10;9.20;99.90
1686;DHT22;840;47.980;7.830;2024-03-08T12:11:38;9.20;99.90
1686;DHT22;840;47.980;7.830;2024-03-08T12:14:06;9.20;99.90
1686;DHT22;840;47.980;7.830;2024-03-08T12:16:33;9.20;99.90
1686;DHT22;840;47.980;7.830;2024-03-08T12:19:00;9.30;99.90
1686;DHT22;840;47.980;7.830;2024-03-08T12:21:31;9.30;99.90
1686;DHT22;840;47.980;7.830;2024-03-08T12:24:04;9.40;99.90
1686;DHT22;840;47.980;7.830;2024-03-08T12:26:35;9.50;99.90
1686;DHT22;840;47.980;7.830;2024-03-08T12:29:17;9.50;99.90
1686;DHT22;840;47.980;7.830;2024-03-08T12:31:46;9.60;99.90
1686;DHT22;840;47.980;7.830;2024-03-08T12:34:13;9.70;99.90
1686;DHT22;840;47.980;7.830;2024-03-08T12:36:45;9.70;99.90
1686;DHT22;840;47.980;7.830;2024-03-08T12:39:13;9.80;99.90
1686;DHT22;840;47.980;7.830;2024-03-08T12:41:41;9.90;99.90
1686;DHT22;840;47.980;7.830;2024-03-08T12:44:08;10.00;99.90
1686;DHT22;840;47.980;7.830;2024-03-08T12:46:38;10.00;99.90
1686;DHT22;840;47.980;7.830;2024-03-08T12:49:07;10.00;99.90
1686;DHT22;840;47.980;7.830;2024-03-08T12:51:35;10.10;99.90
1686;DHT22;840;47.980;7.830;2024-03-08T12:54:02;10.20;99.90
1686;DHT22;840;47.980;7.830;2024-03-08T12:56:30;10.30;99.90
1686;DHT22;840;47.980;7.830;2024-03-08T12:58:56;10.40;99.90
1686;DHT22;840;47.980;7.830;2024-03-08T13:01:23;10.50;99.90
1686;DHT22;840;47.980;7.830;2024-03-08T13:03:51;10.60;99.90
1686;DHT22;840;47.980;7.830;2024-03-08T13:06:18;10.70;99.90
1686;DHT22;840;47.980;7.830;2024-03-08T13:08:47;10.70;99.90
1686;DHT22;840;47.980;7.830;2024-03-08T13:11:14;10.80;99.90
1686;DHT22;840;47.980;7.830;2024-03-08T13:13:41;10.80;99.90
1686;DHT22;840;47.980;7.830;2024-03-08T13:16:08;11.00;99.90
1686;DHT22;840;47.980;7.830;2024-03-08T13:18:35;11.10;99.90
1686;DHT22;840;47.980;7.830;2024-03-08T13:21:03;11.20;99.90
1686;DHT22;840;47.980;7.830;2024-03-08T13:23:32;11.30;99.90
1686;DHT22;840;47.980;7.830;2024-03-08T13:26:04;11.30;99.90
1686;DHT22;840;47.980;7.830;2024-03-08T13:28:31;11.50;99.90
1686;DHT22;840;47.980;7.830;2024-03-08T13:31:02;11.60;99.90
1686;DHT22;840;47.980;7.830;2024-03-08T13:33:32;11.60;99.90
1686;DHT22;840;47.980;7.830;2024-03-08T13:36:02;11.80;99.90
1686;DHT22;840;47.980;7.830;2024-03-08T13:38:31;12.00;99.90
1686;DHT22;840;47.980;7.830;2024-03-08T13:40:58;12.10;99.90
1686;DHT22;840;47.980;7.830;2024-03-08T13:43:25;12.30;99.90
1686;DHT22;840;47.980;7.830;2024-03-08T13:45:54;12.40;99.90
1686;DHT22;840;47.980;7.830;2024-03-08T13:48:21;12.40;99.90
1686;DHT22;840;47.980;7.830;2024-03-08T13:50:48;12.40;99.90
1686;DHT22;840;47.980;7.830;2024-03-08T13:53:16;12.40;99.90
1686;DHT22;840;47.980;7.830;2024-03-08T13:55:43;12.50;99.90
1686;DHT22;840;47.980;7.830;2024-03-08T13:58:10;12.60;99.90
1686;DHT22;840;47.980;7.830;2024-03-08T14:00:39;12.60;99.90
1686;DHT22;840;47.980;7.830;2024-03-08T14:03:09;12.70;99.90
1686;DHT22;840;47.980;7.830;2024-03-08T14:05:39;12.70;99.90
1686;DHT22;840;47.980;7.830;2024-03-08T14:08:06;12.70;99.90
1686;DHT22;840;47.980;7.830;2024-03-08T14:10:35;12.90;99.90
1686;DHT22;840;47.980;7.830;2024-03-08T14:13:03;13.00;99.90
1686;DHT22;840;47.980;7.830;2024-03-08T14:15:32;13.20;99.90
1686;DHT22;840;47.980;7.830;2024-03-08T14:17:59;13.30;99.90
1686;DHT22;840;47.980;7.830;2024-03-08T14:20:27;13.50;99.90
1686;DHT22;840;47.980;7.830;2024-03-08T14:22:54;13.60;99.90
1686;DHT22;840;47.980;7.830;2024-03-08T14:25:21;13.80;99.90
1686;DHT22;840;47.980;7.830;2024-03-08T14:27:50;13.60;99.90
1686;DHT22;840;47.980;7.830;2024-03-08T14:30:19;13.60;99.90
1686;DHT22;840;47.980;7.830;2024-03-08T14:33:00;13.40;99.90
1686;DHT22;840;47.980;7.830;2024-03-08T14:35:27;13.40;99.90
1686;DHT22;840;47.980;7.830;2024-03-08T14:37:55;13.40;99.90
1686;DHT22;840;47.980;7.830;2024-03-08T14:40:22;13.40;99.90
1686;DHT22;840;47.980;7.830;2024-03-08T14:42:51;13.50;99.90
1686;DHT22;840;47.980;7.830;2024-03-08T14:45:18;13.60;99.90
1686;DHT22;840;47.980;7.830;2024-03-08T14:47:45;13.70;99.90
1686;DHT22;840;47.980;7.830;2024-03-08T14:50:15;13.60;99.90
1686;DHT22;840;47.980;7.830;2024-03-08T14:52:42;13.50;99.90
1686;DHT22;840;47.980;7.830;2024-03-08T14:55:09;13.30;99.90
1686;DHT22;840;47.980;7.830;2024-03-08T14:57:39;13.10;99.90
1686;DHT22;840;47.980;7.830;2024-03-08T15:00:08;13.00;99.90
1686;DHT22;840;47.980;7.830;2024-03-08T15:02:42;12.90;99.90
1686;DHT22;840;47.980;7.830;2024-03-08T15:05:09;12.80;99.90
1686;DHT22;840;47.980;7.830;2024-03-08T15:07:37;12.70;99.90
1686;DHT22;840;47.980;7.830;2024-03-08T15:10:06;12.60;99.90
1686;DHT22;840;47.980;7.830;2024-03-08T15:12:36;12.60;99.90
1686;DHT22;840;47.980;7.830;2024-03-08T15:15:07;12.60;99.90
1686;DHT22;840;47.980;7.830;2024-03-08T15:17:35;12.60;99.90
1686;DHT22;840;47.980;7.830;2024-03-08T15:20:06;12.50;99.90
1686;DHT22;840;47.980;7.830;2024-03-08T15:22:41;12.40;99.90
1686;DHT22;840;47.980;7.830;2024-03-08T15:25:08;12.40;99.90
1686;DHT22;840;47.980;7.830;2024-03-08T15:27:37;12.40;99.90
1686;DHT22;840;47.980;7.830;2024-03-08T15:30:07;12.40;99.90
1686;DHT22;840;47.980;7.830;2024-03-08T15:32:39;12.40;99.90
1686;DHT22;840;47.980;7.830;2024-03-08T15:35:07;12.50;99.90
1686;DHT22;840;47.980;7.830;2024-03-08T15:37:37;12.50;99.90
1686;DHT22;840;47.980;7.830;2024-03-08T15:40:05;12.50;99.90
1686;DHT22;840;47.980;7.830;2024-03-08T15:42:32;12.70;99.90
1686;DHT22;840;47.980;7.830;2024-03-08T15:44:59;13.00;99.90
1686;DHT22;840;47.980;7.830;2024-03-08T15:47:28;13.10;99.90
1686;DHT22;840;47.980;7.830;2024-03-08T15:49:54;13.20;99.90
1686;DHT22;840;47.980;7.830;2024-03-08T15:52:21;13.20;99.90
1686;DHT22;840;47.980;7.830;2024-03-08T15:54:48;13.20;99.90
1686;DHT22;840;47.980;7.830;2024-03-08T15:57:15;13.20;99.90
1686;DHT22;840;47.980;7.830;2024-03-08T15:59:44;13.20;99.90
1686;DHT22;840;47.980;7.830;2024-03-08T16:02:11;13.20;99.90
1686;DHT22;840;47.980;7.830;2024-03-08T16:04:40;13.20;99.90
1686;DHT22;840;47.980;7.830;2024-03-08T16:07:06;13.00;99.90
1686;DHT22;840;47.980;7.830;2024-03-08T16:09:33;12.80;99.90
1686;DHT22;840;47.980;7.830;2024-03-08T16:12:00;12.70;99.90
1686;DHT22;840;47.980;7.830;2024-03-08T16:14:27;12.80;99.90
1686;DHT22;840;47.980;7.830;2024-03-08T16:16:53;12.70;99.90
1686;DHT22;840;47.980;7.830;2024-03-08T16:19:20;12.70;99.90
1686;DHT22;840;47.980;7.830;2024-03-08T16:21:49;12.70;99.90
1686;DHT22;840;47.980;7.830;2024-03-08T16:24:16;12.70;99.90
1686;DHT22;840;47.980;7.830;2024-03-08T16:26:44;12.60;99.90
1686;DHT22;840;47.980;7.830;2024-03-08T16:29:11;12.60;99.90
1686;DHT22;840;47.980;7.830;2024-03-08T16:31:39;12.60;99.90
1686;DHT22;840;47.980;7.830;2024-03-08T16:34:06;12.40;99.90
1686;DHT22;840;47.980;7.830;2024-03-08T16:36:34;12.20;99.90